Aérodrome :
LOGIN :

S'inscrire | Disclaimer

   EN    FR    IT 

 










Légende :    VFR   VFR Marginal   IFR   IFR Intensif   IFR Très Intensif
Visi : 
Plafond : 
>= 8 km
>= 3000ft
5 à 8 km
1000 à 3000 ft
1500m à 5 km
500 à 1000 ft
800 à 1500m
200 à 500 ft
< 800m
< 200 ft
Symboles :   Orages  Brouillard  Fortes neiges  Fortes précipitations  Vent > 20 kt
SIGMETs :   Divers  Orages  Givrage  Turbulence  Onde Orograph.  Cendres Volcan.






- Altitude de l'aérodrome : 195 ft


LFMY - Salon de Provence

DERNIER METAR :
  • 131700Z AUTO 32012KT 290V350 CAVOK 09/01 Q1005

METARs EXPIRÉS :
  • 131630Z AUTO 31010KT CAVOK 09/00 Q1005 NOSIG
  • 131600Z AUTO 32014G25KT CAVOK 10/M00 Q1005 NOSIG
  • 131530Z AUTO 31014KT 270V340 CAVOK 10/00 Q1004 NOSIG
  • 131500Z AUTO 31012G23KT CAVOK 11/00 Q1004 NOSIG
  • 131430Z AUTO 33017G31KT 290V350 CAVOK 11/00 Q1004 BECMG 33012KT

TAF TAF LFMY
Valide du 13 à 15h jusqu'au 14 à 15h UTC


131400Z 1315/1415 33012KT CAVOK
BECMG 1322/1324 VRB02KT
BECMG 1405/1407 09012KT BKN030
BECMG 1408/1409 5000 RA
TEMPO 1409/1414 14015G25KT 2000 TSRA BKN014 BKN030CB



MET'MAP, la Météo Aéronautique d'un coup d'oeil ! - Copyright ORBIFLY Décembre 2007 - Disclaimer

ORBIFLY MET'MAP TEAM :

Programmation & Développement : Alexandra Zaïnal
Conception & Développement : Baudouin d'Aumeries
Co-Programmation & Développement : Marc-Olivier Méhu
Soutien technique & logistique : Manuel Goepfert

Contact : metmap@orbifly.com




SOURCES & CREDITS :

   NOAA